createdAt,value
2023-04-29T00:04:40.816Z,1001.8
2023-04-29T00:14:46.656Z,1001.8
2023-04-29T00:24:52.713Z,1001.8
2023-04-29T00:34:58.725Z,1001.8
2023-04-29T00:45:06.032Z,1002
2023-04-29T00:55:10.845Z,1002.1
2023-04-29T01:05:16.860Z,1002.2
2023-04-29T01:15:22.916Z,1002.3
2023-04-29T01:25:28.972Z,1002.3
2023-04-29T01:35:35.019Z,1002.4
2023-04-29T01:45:41.061Z,1002.5
2023-04-29T01:55:47.101Z,1002.5
2023-04-29T02:05:53.170Z,1002.5
2023-04-29T02:15:59.263Z,1002.7
2023-04-29T02:26:05.255Z,1002.7
2023-04-29T02:36:11.311Z,1002.9
2023-04-29T02:46:17.407Z,1002.9
2023-04-29T02:56:23.487Z,1003.1
2023-04-29T03:06:29.431Z,1003.1
2023-04-29T03:16:35.562Z,1003.2
2023-04-29T03:26:41.502Z,1003.3
2023-04-29T03:36:47.551Z,1003.3
2023-04-29T03:46:53.583Z,1003.3
2023-04-29T03:56:59.646Z,1003.4
2023-04-29T04:07:05.703Z,1003.5
2023-04-29T04:17:11.758Z,1003.6
2023-04-29T04:27:17.764Z,1003.7
2023-04-29T04:37:23.827Z,1003.8
2023-04-29T04:47:29.886Z,1003.9
2023-04-29T04:57:35.951Z,1004
2023-04-29T05:07:41.954Z,1004.1
2023-04-29T05:17:48.064Z,1004.2
2023-04-29T05:27:54.067Z,1004.3
2023-04-29T05:38:00.108Z,1004.5
2023-04-29T05:48:06.157Z,1004.6
2023-04-29T05:58:12.213Z,1004.7
2023-04-29T06:08:18.227Z,1004.8
2023-04-29T06:18:24.273Z,1004.9
2023-04-29T06:28:30.330Z,1005.1
2023-04-29T06:38:36.353Z,1005.3
2023-04-29T06:58:48.478Z,1005.6
2023-04-29T07:08:56.882Z,1005.6
2023-04-29T07:19:00.584Z,1005.8
2023-04-29T07:29:06.604Z,1005.9
2023-04-29T07:39:12.675Z,1006.1
2023-04-29T07:49:18.674Z,1006.1
2023-04-29T07:59:24.736Z,1006.2
2023-04-29T08:09:30.757Z,1006.3
2023-04-29T08:19:36.915Z,1006.4
2023-04-29T08:29:42.893Z,1006.5
2023-04-29T08:39:49.075Z,1006.6
2023-04-29T08:49:55.141Z,1006.7
2023-04-29T09:00:01.171Z,1006.8
2023-04-29T09:10:07.038Z,1006.9
2023-04-29T09:20:13.093Z,1007
2023-04-29T09:30:19.198Z,1007.1
2023-04-29T09:40:25.176Z,1007.2
2023-04-29T09:50:31.232Z,1007.2
2023-04-29T10:00:37.275Z,1007.3
2023-04-29T10:10:43.323Z,1007.5
2023-04-29T10:20:49.366Z,1007.5
2023-04-29T10:30:55.517Z,1007.6
2023-04-29T11:01:15.481Z,1007.8
2023-04-29T11:11:21.467Z,1007.9
2023-04-29T11:21:27.541Z,1008
2023-04-29T11:41:39.631Z,1008
2023-04-29T11:51:45.667Z,1008
2023-04-29T12:01:51.708Z,1008
2023-04-29T12:11:57.757Z,1008
2023-04-29T12:22:03.809Z,1008
2023-04-29T12:32:09.830Z,1008
2023-04-29T12:42:15.877Z,1008
2023-04-29T12:52:21.953Z,1008
2023-04-29T13:02:28.069Z,1008.1
2023-04-29T13:12:34.035Z,1008.1
2023-04-29T13:22:40.115Z,1008.1
2023-04-29T13:32:51.868Z,1008.2
2023-04-29T13:43:02.064Z,1008.2
2023-04-29T13:53:30.336Z,1008.2
2023-04-29T14:03:04.333Z,1008.2
2023-04-29T14:13:10.299Z,1008.2
2023-04-29T14:23:16.342Z,1008.2
2023-04-29T14:33:22.431Z,1008.3
2023-04-29T14:43:28.454Z,1008.4
2023-04-29T14:53:34.492Z,1008.5
2023-04-29T15:03:44.207Z,1008.6
2023-04-29T15:13:46.566Z,1008.7
2023-04-29T15:23:52.673Z,1008.7
2023-04-29T15:33:58.688Z,1008.7
2023-04-29T15:44:04.715Z,1008.7
2023-04-29T15:54:10.756Z,1008.8
2023-04-29T16:04:16.835Z,1008.8
2023-04-29T16:14:22.886Z,1008.9
2023-04-29T16:24:28.931Z,1008.9
2023-04-29T16:34:34.955Z,1008.8
2023-04-29T16:44:40.992Z,1008.8
2023-04-29T16:54:47.034Z,1008.8
2023-04-29T17:04:53.219Z,1008.9
2023-04-29T17:14:59.150Z,1008.9
2023-04-29T17:25:05.181Z,1009
2023-04-29T17:35:11.227Z,1008.9
2023-04-29T17:45:17.273Z,1008.9
2023-04-29T17:55:23.314Z,1009
2023-04-29T18:05:29.366Z,1009
2023-04-29T18:15:35.401Z,1009
2023-04-29T18:25:41.454Z,1009
2023-04-29T18:35:47.534Z,1009.1
2023-04-29T18:45:53.584Z,1009.1
2023-04-29T18:55:59.578Z,1009.1
2023-04-29T19:06:05.657Z,1009.1
2023-04-29T19:16:11.714Z,1009.2
2023-04-29T19:26:17.723Z,1009.3
2023-04-29T19:36:23.769Z,1009.4
2023-04-29T19:46:29.917Z,1009.4
2023-04-29T19:56:35.849Z,1009.4
2023-04-29T20:16:48.138Z,1009.6
2023-04-29T20:26:54.000Z,1009.7
2023-04-29T20:37:00.071Z,1009.7
2023-04-29T20:47:06.086Z,1009.8
2023-04-29T20:57:12.158Z,1009.8
2023-04-29T21:07:18.168Z,1009.9
2023-04-29T21:17:24.263Z,1009.9
2023-04-29T21:27:30.269Z,1010
2023-04-29T21:47:44.322Z,1010.1
2023-04-29T21:57:50.296Z,1010.1
2023-04-29T22:07:56.339Z,1010.2
2023-04-29T22:18:02.447Z,1010.2
2023-04-29T22:28:08.735Z,1010.4
2023-04-29T22:38:14.480Z,1010.4
2023-04-29T22:48:20.522Z,1010.4
2023-04-29T22:58:26.609Z,1010.5
2023-04-29T23:08:32.607Z,1010.6
2023-04-29T23:18:38.664Z,1010.6
2023-04-29T23:28:44.697Z,1010.7
2023-04-29T23:38:50.753Z,1010.6
2023-04-29T23:48:56.798Z,1010.6
2023-04-29T23:59:02.848Z,1010.6
